Time;durP1;ratioP1;P1;durP2;ratioP2;P2;SDS_P1;SDS_P2;PMS_P1;PMS_P2;Temp;Humidity;BMP_temperature;BMP_pressure;BME280_temperature;BME280_humidity;BME280_pressure;Samples;Min_cycle;Max_cycle;Signal;HPM_P1;HPM_P2
2023/03/11 00:02:13;;;;;;;12.93;10.27;;;;;;;12.65;69.12;99246.50;5015997;28;20740;-81
2023/03/11 00:04:38;;;;;;;14.82;11.25;;;;;;;12.73;68.80;99243.53;5015851;28;20402;-80
2023/03/11 00:07:09;;;;;;;12.60;10.53;;;;;;;12.81;68.79;99249.38;5017006;28;20384;-80
2023/03/11 00:09:34;;;;;;;12.68;10.05;;;;;;;12.69;68.87;99251.16;5016062;28;20872;-79
2023/03/11 00:12:01;;;;;;;12.13;10.37;;;;;;;12.64;69.13;99240.38;5015901;28;20408;-79
2023/03/11 00:14:27;;;;;;;13.38;10.32;;;;;;;12.72;68.86;99237.41;5015994;28;20392;-81
2023/03/11 00:16:52;;;;;;;10.35;9.05;;;;;;;12.84;68.69;99242.84;5014786;28;20451;-80
2023/03/11 00:19:18;;;;;;;12.73;9.53;;;;;;;12.93;68.30;99243.34;5016791;28;20441;-80
2023/03/11 00:21:43;;;;;;;13.97;10.83;;;;;;;13.03;68.01;99237.50;5015724;28;20772;-80
2023/03/11 00:24:09;;;;;;;17.40;12.63;;;;;;;13.06;67.96;99239.72;5015509;28;20467;-81
2023/03/11 00:26:34;;;;;;;18.50;12.97;;;;;;;13.00;67.59;99236.13;5016391;28;20388;-80
2023/03/11 00:29:00;;;;;;;19.63;16.23;;;;;;;13.00;67.92;99234.25;5016041;28;20491;-80
2023/03/11 00:31:25;;;;;;;24.80;17.27;;;;;;;13.00;67.96;99228.13;5015395;28;20391;-80
2023/03/11 00:33:56;;;;;;;23.52;16.42;;;;;;;13.00;67.73;99223.63;5014492;28;20396;-79
2023/03/11 00:36:23;;;;;;;19.05;15.52;;;;;;;12.82;68.11;99219.13;5014350;28;20408;-79
2023/03/11 00:38:49;;;;;;;23.67;17.52;;;;;;;12.80;68.27;99223.00;5047061;28;20824;-80
2023/03/11 00:41:14;;;;;;;28.23;19.90;;;;;;;12.76;68.22;99219.19;5014813;28;20376;-79
2023/03/11 00:43:40;;;;;;;30.40;21.37;;;;;;;12.71;68.32;99211.88;5014946;28;20464;-80
2023/03/11 00:46:05;;;;;;;23.23;17.75;;;;;;;12.72;68.12;99210.03;5017266;28;20796;-80
2023/03/11 00:48:31;;;;;;;23.53;17.20;;;;;;;12.74;68.02;99200.78;5016956;28;20376;-80
2023/03/11 00:50:57;;;;;;;25.42;17.20;;;;;;;12.74;68.21;99205.28;5015499;28;20376;-80
2023/03/11 00:53:22;;;;;;;28.77;17.95;;;;;;;12.74;67.95;99199.97;5015292;28;20394;-80
2023/03/11 00:55:48;;;;;;;21.13;16.92;;;;;;;12.63;68.05;99180.25;5014020;28;20392;-80
2023/03/11 00:58:13;;;;;;;22.70;17.60;;;;;;;12.70;68.15;99182.84;5014645;28;20399;-79
2023/03/11 01:00:40;;;;;;;21.25;17.55;;;;;;;12.78;67.81;99185.19;5014398;28;20466;-80
2023/03/11 01:03:05;;;;;;;21.45;17.70;;;;;;;12.85;67.47;99190.44;5014425;28;20414;-79
2023/03/11 01:05:32;;;;;;;23.48;18.83;;;;;;;12.94;67.04;99175.81;5014682;28;20383;-78
2023/03/11 01:07:58;;;;;;;19.58;16.35;;;;;;;12.82;66.78;99175.78;5014782;28;20380;-78
2023/03/11 01:10:24;;;;;;;18.10;15.43;;;;;;;12.82;66.98;99168.59;5015365;28;20706;-80
2023/03/11 01:12:50;;;;;;;20.08;16.58;;;;;;;12.92;66.74;99176.03;5014230;28;20974;-79
2023/03/11 01:15:20;;;;;;;18.27;16.20;;;;;;;12.91;66.53;99160.28;5014812;28;20479;-79
2023/03/11 01:17:46;;;;;;;20.55;16.05;;;;;;;12.92;66.33;99159.28;5014842;28;20872;-79
2023/03/11 01:20:11;;;;;;;21.30;16.73;;;;;;;13.05;65.89;99161.75;5015258;28;20380;-79
2023/03/11 01:22:37;;;;;;;19.58;16.55;;;;;;;13.11;65.81;99158.22;5014631;28;20443;-79
2023/03/11 01:25:03;;;;;;;24.37;17.73;;;;;;;13.14;65.56;99141.81;5046981;28;20384;-79
2023/03/11 01:27:29;;;;;;;18.77;16.77;;;;;;;13.16;65.39;99141.56;5014973;28;20388;-79
2023/03/11 01:29:55;;;;;;;19.35;17.10;;;;;;;13.20;65.14;99140.91;5018886;28;20395;-79
2023/03/11 01:32:20;;;;;;;20.33;17.60;;;;;;;13.19;64.93;99143.78;5018524;28;20729;-79
2023/03/11 01:34:46;;;;;;;18.97;16.23;;;;;;;13.21;64.84;99144.34;5018547;28;20751;-79
2023/03/11 01:37:11;;;;;;;20.13;16.33;;;;;;;13.15;65.05;99137.28;5017504;28;20445;-81
2023/03/11 01:39:37;;;;;;;19.17;16.50;;;;;;;13.12;65.07;99133.22;5017520;28;20384;-80
2023/03/11 01:42:02;;;;;;;19.85;16.33;;;;;;;13.06;65.05;99138.66;5017134;28;20403;-80
2023/03/11 01:44:28;;;;;;;20.63;17.10;;;;;;;12.94;65.40;99142.03;5017642;28;20392;-79
2023/03/11 01:46:53;;;;;;;24.87;19.17;;;;;;;12.96;65.39;99142.66;5023746;28;20397;-80
2023/03/11 01:49:21;;;;;;;22.23;19.52;;;;;;;12.98;65.29;99137.09;5037155;28;20486;-79
2023/03/11 01:51:50;;;;;;;23.10;18.55;;;;;;;13.09;64.73;99136.34;5036552;28;20452;-79
2023/03/11 01:54:19;;;;;;;21.80;16.85;;;;;;;13.16;64.78;99136.25;5033632;28;20739;-79
2023/03/11 01:56:45;;;;;;;18.25;15.00;;;;;;;13.17;64.75;99144.00;5035682;28;20382;-80
2023/03/11 01:59:14;;;;;;;18.48;14.85;;;;;;;13.12;64.43;99149.19;5037420;28;20370;-79
2023/03/11 02:02:10;;;;;;;15.88;12.27;;;;;;;13.14;64.54;99147.13;5036752;28;20410;-79
2023/03/11 02:04:36;;;;;;;18.30;14.40;;;;;;;13.17;64.32;99159.97;5035808;28;20398;-79
2023/03/11 02:07:03;;;;;;;15.20;12.65;;;;;;;13.04;64.41;99164.66;5037145;28;20383;-80
2023/03/11 02:09:29;;;;;;;13.73;11.97;;;;;;;13.11;64.31;99171.50;5038601;28;20374;-80
2023/03/11 02:11:56;;;;;;;15.93;12.07;;;;;;;13.09;64.10;99172.75;5037112;28;20398;-79
2023/03/11 02:14:23;;;;;;;11.57;9.43;;;;;;;13.09;64.12;99178.09;5037117;28;20390;-79
2023/03/11 02:16:48;;;;;;;13.13;9.70;;;;;;;13.11;63.93;99176.84;5035967;28;20389;-78
2023/03/11 02:19:27;;;;;;;8.43;6.93;;;;;;;13.09;63.87;99192.22;5035740;28;20390;-80
2023/03/11 02:21:53;;;;;;;5.40;4.40;;;;;;;12.99;63.70;99191.94;5034190;28;20401;-79
2023/03/11 02:24:44;;;;;;;6.20;4.23;;;;;;;12.89;63.90;99197.78;5036671;28;20478;-79
2023/03/11 02:27:17;;;;;;;5.85;3.72;;;;;;;12.96;63.65;99197.69;5033390;28;20871;-80
2023/03/11 02:29:46;;;;;;;5.97;4.65;;;;;;;12.97;63.53;99197.47;5035781;28;20393;-80
2023/03/11 02:32:12;;;;;;;7.45;4.68;;;;;;;13.00;63.57;99191.69;5034783;28;20382;-79
2023/03/11 02:34:38;;;;;;;5.40;3.60;;;;;;;13.07;63.26;99188.97;5035986;28;20386;-80
2023/03/11 02:37:09;;;;;;;3.87;2.93;;;;;;;13.09;62.96;99192.22;5036013;28;20874;-80
2023/03/11 02:39:37;;;;;;;4.97;2.83;;;;;;;13.06;62.83;99184.69;5031605;28;20533;-80
2023/03/11 02:42:31;;;;;;;3.83;2.47;;;;;;;13.14;62.75;99208.31;5034335;28;20394;-80
2023/03/11 02:45:02;;;;;;;3.22;2.40;;;;;;;13.20;62.64;99210.06;5035347;28;20489;-80
2023/03/11 02:47:28;;;;;;;3.08;2.00;;;;;;;13.12;62.89;99204.25;5049554;28;20400;-82
2023/03/11 02:49:55;;;;;;;2.13;1.57;;;;;;;13.15;62.69;99203.81;5052181;28;20406;-87
2023/03/11 02:52:21;;;;;;;4.03;1.40;;;;;;;13.18;62.62;99213.97;5038744;28;20387;-89
2023/03/11 02:54:46;;;;;;;4.72;2.53;;;;;;;13.23;62.76;99214.13;5037705;28;20806;-90
2023/03/11 02:57:12;;;;;;;3.50;1.47;;;;;;;13.32;62.72;99217.31;5034188;28;20836;-91
2023/03/11 02:59:37;;;;;;;2.83;1.50;;;;;;;13.22;62.57;99217.00;5034486;28;20393;-88
2023/03/11 03:02:03;;;;;;;2.93;1.77;;;;;;;13.19;62.53;99219.09;5035072;28;20501;-88
2023/03/11 03:04:28;;;;;;;3.92;2.22;;;;;;;13.16;62.53;99218.72;5035242;28;20811;-90
2023/03/11 03:06:54;;;;;;;4.15;2.00;;;;;;;13.14;62.35;99204.81;5033849;28;20405;-91
2023/03/11 03:09:20;;;;;;;3.75;2.03;;;;;;;13.26;62.27;99224.34;5035525;28;20388;-90
2023/03/11 03:11:45;;;;;;;1.90;1.40;;;;;;;13.20;61.79;99220.72;5034790;28;20536;-90
2023/03/11 03:14:11;;;;;;;4.90;2.77;;;;;;;13.25;61.81;99225.34;5037485;28;20390;-91
2023/03/11 03:16:36;;;;;;;4.27;1.77;;;;;;;13.28;61.90;99232.91;5031553;28;20386;-89
2023/03/11 03:19:03;;;;;;;5.30;2.07;;;;;;;13.23;62.06;99226.63;5037237;28;20415;-87
2023/03/11 03:21:28;;;;;;;3.77;2.23;;;;;;;13.29;62.11;99233.69;5040226;28;20402;-87
2023/03/11 03:23:54;;;;;;;3.33;1.93;;;;;;;13.40;61.47;99230.34;5040673;28;20402;-85
2023/03/11 03:26:19;;;;;;;4.68;2.30;;;;;;;13.43;61.53;99229.88;5041424;28;20389;-85
2023/03/11 03:28:45;;;;;;;5.67;2.60;;;;;;;13.47;61.68;99244.38;5042259;28;20394;-84
2023/03/11 03:31:11;;;;;;;5.50;2.83;;;;;;;13.39;61.58;99224.19;5042049;28;20782;-84
2023/03/11 03:33:37;;;;;;;5.93;2.60;;;;;;;13.49;61.42;99236.16;5066521;28;20454;-83
2023/03/11 03:36:11;;;;;;;4.05;2.30;;;;;;;13.54;61.40;99239.78;5040978;28;20418;-83
2023/03/11 03:38:37;;;;;;;5.85;2.30;;;;;;;13.50;61.14;99233.25;5039484;28;20401;-83
2023/03/11 03:41:02;;;;;;;3.20;2.20;;;;;;;13.57;61.18;99236.63;5041938;28;20386;-81
2023/03/11 03:43:28;;;;;;;5.50;3.15;;;;;;;13.61;61.20;99230.88;5040913;28;20779;-81
2023/03/11 03:45:58;;;;;;;5.37;3.43;;;;;;;13.61;61.45;99229.00;5041704;28;20402;-81
2023/03/11 03:48:24;;;;;;;4.47;3.10;;;;;;;13.52;61.46;99227.72;5040498;28;20811;-81
2023/03/11 03:50:50;;;;;;;5.78;3.55;;;;;;;13.43;61.57;99227.19;5038743;28;20394;-81
2023/03/11 03:53:16;;;;;;;5.07;3.30;;;;;;;13.35;61.76;99230.19;5039880;28;20409;-82
2023/03/11 03:55:41;;;;;;;3.90;2.50;;;;;;;13.34;61.55;99226.72;5041111;28;21049;-81
2023/03/11 03:58:07;;;;;;;4.63;2.60;;;;;;;13.32;61.74;99223.44;5038644;28;20443;-82
2023/03/11 04:00:34;;;;;;;3.60;2.60;;;;;;;13.41;61.45;99221.28;5043505;28;20401;-81
2023/03/11 04:02:59;;;;;;;3.72;2.60;;;;;;;13.46;61.26;99216.13;5042009;28;20446;-82
2023/03/11 04:05:26;;;;;;;2.20;2.00;;;;;;;13.50;61.27;99213.81;5038741;28;20480;-81
2023/03/11 04:07:53;;;;;;;380.67;262.70;;;;;;;13.60;60.92;99216.75;5039562;28;20394;-82
2023/03/11 04:10:18;;;;;;;35.15;24.08;;;;;;;13.63;60.81;99216.31;5033446;28;20885;-81
2023/03/11 04:12:44;;;;;;;7.45;5.00;;;;;;;13.60;61.17;99218.63;5038140;28;20414;-82
2023/03/11 04:15:09;;;;;;;6.63;5.53;;;;;;;13.55;61.19;99208.63;5038718;28;20402;-82
2023/03/11 04:17:36;;;;;;;4.82;4.00;;;;;;;13.57;61.15;99214.53;5038391;28;20429;-84
2023/03/11 04:20:02;;;;;;;3.78;2.40;;;;;;;13.49;61.21;99207.69;5038170;28;20488;-89
2023/03/11 04:22:27;;;;;;;4.95;3.17;;;;;;;13.42;61.28;99206.16;5038747;28;20402;-88
2023/03/11 04:24:53;;;;;;;7.97;4.60;;;;;;;13.50;61.27;99214.63;5038505;28;21021;-87
2023/03/11 04:27:18;;;;;;;5.33;3.90;;;;;;;13.47;61.15;99206.28;5037210;28;20433;-85
2023/03/11 04:29:44;;;;;;;5.97;4.50;;;;;;;13.42;61.30;99206.97;5039530;28;20399;-85
2023/03/11 04:32:09;;;;;;;6.10;3.90;;;;;;;13.40;61.43;99211.72;5036230;28;20398;-85
2023/03/11 04:34:35;;;;;;;5.95;5.10;;;;;;;13.45;61.29;99209.19;5036315;28;20447;-84
2023/03/11 04:37:00;;;;;;;5.67;3.17;;;;;;;13.36;61.05;99205.19;5036411;28;20382;-84
2023/03/11 04:39:26;;;;;;;5.30;3.72;;;;;;;13.34;61.15;99208.09;5035458;28;20894;-82
2023/03/11 04:41:51;;;;;;;5.40;2.90;;;;;;;13.35;61.24;99211.56;5036024;28;20713;-82
2023/03/11 04:44:17;;;;;;;7.33;6.07;;;;;;;13.42;61.22;99208.81;5035155;28;20394;-81
2023/03/11 04:46:42;;;;;;;5.70;3.10;;;;;;;13.46;61.26;99212.66;5034762;28;20413;-82
2023/03/11 04:49:09;;;;;;;4.17;2.40;;;;;;;13.42;61.13;99204.31;5034412;28;20394;-80
2023/03/11 04:51:34;;;;;;;3.37;2.53;;;;;;;13.47;61.36;99207.09;5032819;28;20466;-81
2023/03/11 04:54:00;;;;;;;5.80;3.00;;;;;;;13.46;61.35;99216.13;5032428;28;20950;-81
2023/03/11 04:56:25;;;;;;;4.00;3.00;;;;;;;13.41;61.10;99213.31;5034115;28;20401;-80
2023/03/11 04:58:51;;;;;;;4.87;4.20;;;;;;;13.37;61.06;99214.81;5033572;28;20944;-80
2023/03/11 05:01:16;;;;;;;5.30;4.15;;;;;;;13.33;61.70;99224.28;5033922;28;20467;-80
2023/03/11 05:03:41;;;;;;;8.13;4.90;;;;;;;13.35;61.21;99223.00;5032654;28;20813;-79
2023/03/11 05:06:07;;;;;;;6.25;4.88;;;;;;;13.31;61.65;99223.72;5033188;28;20770;-80
2023/03/11 05:08:32;;;;;;;6.63;3.90;;;;;;;13.31;61.43;99232.50;5032872;28;20405;-79
2023/03/11 05:10:58;;;;;;;5.85;3.65;;;;;;;13.42;61.85;99227.44;5032842;28;20433;-81
2023/03/11 05:13:25;;;;;;;5.38;4.05;;;;;;;13.40;61.61;99233.00;5031464;28;20501;-80
2023/03/11 05:15:51;;;;;;;4.77;3.30;;;;;;;13.41;61.49;99223.97;5033311;28;20429;-80
2023/03/11 05:18:16;;;;;;;5.40;3.43;;;;;;;13.40;61.59;99227.69;5032923;28;20391;-80
2023/03/11 05:20:42;;;;;;;4.30;2.92;;;;;;;13.50;61.00;99240.44;5032272;28;20409;-80
2023/03/11 05:23:07;;;;;;;3.00;2.43;;;;;;;13.52;61.07;99236.53;5032219;28;20425;-80
2023/03/11 05:25:34;;;;;;;3.78;2.97;;;;;;;13.49;61.09;99236.16;5032281;28;21406;-80
2023/03/11 05:28:00;;;;;;;3.20;2.28;;;;;;;13.53;60.79;99234.66;5026122;28;20482;-79
2023/03/11 05:30:26;;;;;;;3.75;3.20;;;;;;;13.32;61.03;99217.31;5032165;28;20516;-81
2023/03/11 05:32:51;;;;;;;3.13;2.10;;;;;;;13.36;60.75;99234.47;5033059;28;20480;-79
2023/03/11 05:35:17;;;;;;;3.93;2.30;;;;;;;13.26;60.86;99221.66;5032705;28;20910;-79
2023/03/11 05:37:43;;;;;;;3.65;2.72;;;;;;;13.28;61.16;99235.56;5035363;28;20405;-81
2023/03/11 05:40:11;;;;;;;4.53;2.38;;;;;;;13.30;60.77;99228.16;5034015;28;20390;-80
2023/03/11 05:42:37;;;;;;;3.38;2.38;;;;;;;13.28;61.09;99232.91;5033119;28;20406;-79
2023/03/11 05:45:02;;;;;;;5.10;3.10;;;;;;;13.37;60.59;99236.91;5033365;28;20394;-80
2023/03/11 05:47:28;;;;;;;3.60;2.60;;;;;;;13.30;60.93;99233.47;5032170;28;20402;-79
2023/03/11 05:49:53;;;;;;;2.70;2.40;;;;;;;13.35;60.86;99228.34;5032631;28;20410;-80
2023/03/11 05:52:19;;;;;;;3.40;2.03;;;;;;;13.41;60.70;99236.47;5028743;28;20893;-78
2023/03/11 05:54:48;;;;;;;3.17;2.40;;;;;;;13.47;60.87;99230.22;5032015;28;20409;-79
2023/03/11 05:57:13;;;;;;;3.37;2.30;;;;;;;13.47;60.54;99228.41;5030728;28;20472;-80
2023/03/11 05:59:40;;;;;;;5.60;2.90;;;;;;;13.57;60.37;99241.97;5030270;28;20398;-79
2023/03/11 06:02:05;;;;;;;2.47;2.20;;;;;;;13.54;59.97;99226.47;5030650;28;20398;-79
2023/03/11 06:04:31;;;;;;;4.40;2.60;;;;;;;13.53;60.40;99216.03;5032443;28;20489;-79
2023/03/11 06:06:56;;;;;;;3.33;2.08;;;;;;;13.72;59.89;99238.91;5032249;28;20397;-78
2023/03/11 06:09:22;;;;;;;3.80;2.13;;;;;;;13.73;60.16;99240.50;5031691;28;20422;-78
2023/03/11 06:11:47;;;;;;;5.97;2.13;;;;;;;13.72;59.91;99238.06;5031408;28;20790;-79
2023/03/11 06:14:14;;;;;;;3.53;2.30;;;;;;;13.76;59.52;99245.41;5032322;28;20806;-79
2023/03/11 06:16:41;;;;;;;7.57;4.47;;;;;;;13.72;59.52;99238.06;5032748;28;20922;-79
2023/03/11 06:19:06;;;;;;;10.98;7.38;;;;;;;13.80;59.77;99256.41;5034438;28;20390;-80
2023/03/11 06:21:32;;;;;;;13.60;8.73;;;;;;;13.91;59.42;99258.28;5035388;28;20531;-79
2023/03/11 06:23:58;;;;;;;8.40;5.97;;;;;;;13.86;59.32;99247.50;5036262;28;20394;-80
2023/03/11 06:26:23;;;;;;;7.53;4.40;;;;;;;13.89;59.65;99241.72;5035573;28;20475;-81
2023/03/11 06:28:50;;;;;;;11.18;6.85;;;;;;;13.90;59.70;99232.72;5035243;28;20390;-79
2023/03/11 06:31:23;;;;;;;8.32;5.40;;;;;;;13.95;59.47;99245.31;5035244;28;20862;-78
2023/03/11 06:33:48;;;;;;;7.45;5.20;;;;;;;14.06;59.38;99249.88;5034241;28;20458;-79
2023/03/11 06:36:16;;;;;;;13.00;8.25;;;;;;;14.15;59.52;99237.84;5035156;28;20890;-78
2023/03/11 06:38:42;;;;;;;10.85;6.70;;;;;;;14.09;59.55;99233.44;5033176;28;20450;-79
2023/03/11 06:41:08;;;;;;;8.80;6.13;;;;;;;14.18;59.78;99241.09;5034800;28;20487;-81
2023/03/11 06:43:34;;;;;;;8.55;5.88;;;;;;;14.20;59.43;99233.69;5034646;28;20957;-79
2023/03/11 06:46:06;;;;;;;14.07;7.13;;;;;;;14.20;59.44;99229.16;5029881;28;20413;-78
2023/03/11 06:48:32;;;;;;;8.55;4.35;;;;;;;14.28;59.10;99230.69;5034178;28;20854;-82
2023/03/11 06:50:59;;;;;;;7.03;4.83;;;;;;;14.27;59.30;99226.38;5034614;28;20401;-79
2023/03/11 06:53:26;;;;;;;9.50;5.38;;;;;;;14.43;59.10;99232.88;5034461;28;20393;-78
2023/03/11 06:56:12;;;;;;;10.07;5.65;;;;;;;14.41;58.69;99232.31;5033737;28;20397;-78
2023/03/11 06:58:40;;;;;;;14.63;9.52;;;;;;;14.47;58.66;99226.84;5034846;28;20436;-78
2023/03/11 07:01:11;;;;;;;8.15;4.78;;;;;;;14.61;58.66;99234.66;5034105;28;20387;-79
2023/03/11 07:03:36;;;;;;;12.80;7.13;;;;;;;14.66;58.34;99238.25;5033754;28;20410;-80
2023/03/11 07:06:02;;;;;;;7.80;4.67;;;;;;;14.60;57.97;99244.50;5034258;28;20402;-79
2023/03/11 07:08:29;;;;;;;5.40;4.37;;;;;;;14.66;58.14;99248.13;5033990;28;20478;-80
2023/03/11 07:11:06;;;;;;;7.40;3.90;;;;;;;14.61;57.54;99243.47;5033536;28;20386;-79
2023/03/11 07:13:32;;;;;;;8.60;5.35;;;;;;;14.58;57.90;99253.78;5033735;28;20898;-80
2023/03/11 07:16:06;;;;;;;6.43;3.05;;;;;;;14.52;57.69;99242.97;5033415;28;20382;-79
2023/03/11 07:18:33;;;;;;;5.43;2.60;;;;;;;14.53;56.94;99249.94;5032344;28;20819;-80
2023/03/11 07:21:00;;;;;;;5.10;2.00;;;;;;;14.58;56.86;99251.91;5034278;28;20925;-81
2023/03/11 07:23:27;;;;;;;4.47;1.90;;;;;;;14.63;56.80;99256.56;5033359;28;20399;-80
2023/03/11 07:25:54;;;;;;;3.35;1.13;;;;;;;14.55;55.76;99255.03;5032018;28;20489;-79
2023/03/11 07:28:23;;;;;;;4.05;1.90;;;;;;;14.63;56.04;99260.03;5033702;28;20460;-78
2023/03/11 07:30:49;;;;;;;3.28;1.30;;;;;;;14.59;56.30;99247.41;5030608;28;20460;-80
2023/03/11 07:33:15;;;;;;;3.93;1.40;;;;;;;14.63;56.42;99243.22;5032700;28;20378;-79
2023/03/11 07:35:40;;;;;;;2.97;1.63;;;;;;;14.74;55.92;99228.28;5032090;28;21057;-78
2023/03/11 07:38:06;;;;;;;4.90;1.85;;;;;;;14.72;55.83;99225.84;5031700;28;20456;-79
2023/03/11 07:40:32;;;;;;;14.68;4.75;;;;;;;14.83;56.39;99222.31;5032077;28;20472;-80
2023/03/11 07:42:57;;;;;;;3.57;1.63;;;;;;;15.02;55.06;99219.53;5031882;28;20406;-80
2023/03/11 07:45:23;;;;;;;5.67;1.43;;;;;;;14.92;55.17;99214.78;5031089;28;20390;-79
2023/03/11 07:47:48;;;;;;;3.90;1.57;;;;;;;15.13;54.62;99212.53;5032268;28;20635;-80
2023/03/11 07:50:16;;;;;;;3.97;1.33;;;;;;;14.99;54.59;99196.78;5033048;28;20825;-80
2023/03/11 07:52:41;;;;;;;4.53;1.40;;;;;;;15.01;54.47;99201.88;5032637;28;20387;-80
2023/03/11 07:55:07;;;;;;;3.83;1.55;;;;;;;15.01;54.28;99215.22;4993144;28;20396;-79
2023/03/11 07:57:33;;;;;;;4.70;1.65;;;;;;;14.96;53.18;99207.91;5012401;28;20450;-81
2023/03/11 07:59:58;;;;;;;8.47;1.97;;;;;;;15.07;53.66;99195.59;5011794;28;20392;-80
2023/03/11 08:02:24;;;;;;;10.37;2.20;;;;;;;14.97;53.46;99195.41;5013416;28;20408;-79
2023/03/11 08:04:49;;;;;;;11.73;2.70;;;;;;;15.06;53.50;99199.31;5016473;28;20403;-80
2023/03/11 08:07:15;;;;;;;13.10;2.80;;;;;;;15.16;54.43;99182.69;5018578;28;20386;-79
2023/03/11 08:09:40;;;;;;;6.40;2.57;;;;;;;15.14;53.44;99190.13;5015822;28;20383;-79
2023/03/11 08:12:06;;;;;;;7.10;2.07;;;;;;;14.67;53.53;99191.03;5018233;28;20404;-80
2023/03/11 08:14:31;;;;;;;9.65;2.85;;;;;;;14.77;53.98;99188.59;5016053;28;20390;-81
2023/03/11 08:16:57;;;;;;;12.47;3.10;;;;;;;14.91;53.45;99187.28;5018208;28;20403;-79
2023/03/11 08:19:22;;;;;;;10.38;3.00;;;;;;;15.12;53.30;99177.00;5015359;28;20383;-80
2023/03/11 08:21:48;;;;;;;9.00;3.37;;;;;;;15.15;52.69;99171.22;5015743;28;20397;-80
2023/03/11 08:24:14;;;;;;;12.23;3.60;;;;;;;15.21;52.86;99164.09;5019663;28;20944;-82
2023/03/11 08:26:40;;;;;;;14.57;4.40;;;;;;;15.28;52.78;99175.44;5019385;28;20392;-80
2023/03/11 08:29:05;;;;;;;14.25;3.78;;;;;;;14.96;52.49;99172.44;5013412;28;20447;-81
2023/03/11 08:31:33;;;;;;;7.37;3.33;;;;;;;15.09;52.99;99169.50;5012413;28;20387;-80
2023/03/11 08:34:08;;;;;;;10.27;4.18;;;;;;;15.29;52.94;99164.53;5012684;28;20383;-79
2023/03/11 08:36:34;;;;;;;6.38;2.88;;;;;;;15.34;51.50;99165.66;5013196;28;20410;-80
2023/03/11 08:39:00;;;;;;;5.10;2.65;;;;;;;15.43;50.77;99156.22;5014883;28;20419;-80
2023/03/11 08:41:26;;;;;;;5.88;1.90;;;;;;;15.23;50.00;99170.84;5015127;28;20429;-78
2023/03/11 08:43:52;;;;;;;4.78;2.10;;;;;;;15.07;51.10;99174.25;5014073;28;20491;-77
2023/03/11 08:46:33;;;;;;;5.03;2.05;;;;;;;15.13;51.30;99180.50;5017445;28;20479;-80
2023/03/11 08:48:59;;;;;;;6.47;3.38;;;;;;;15.30;50.87;99184.03;5016899;28;20393;-79
2023/03/11 08:51:26;;;;;;;4.53;1.77;;;;;;;15.24;49.85;99187.66;5018751;28;20390;-80
2023/03/11 08:53:52;;;;;;;4.82;1.83;;;;;;;15.21;49.97;99178.25;5019600;28;20395;-81
2023/03/11 08:56:17;;;;;;;8.55;3.00;;;;;;;15.57;50.09;99180.78;5015867;28;20400;-81
2023/03/11 08:58:43;;;;;;;6.10;2.65;;;;;;;15.62;49.56;99184.34;5025986;28;20871;-79
2023/03/11 09:01:11;;;;;;;7.05;2.80;;;;;;;15.79;49.48;99186.25;5025233;28;20392;-80
2023/03/11 09:03:37;;;;;;;3.97;1.40;;;;;;;15.52;47.92;99186.03;5024051;28;20425;-81
2023/03/11 09:06:10;;;;;;;7.38;2.92;;;;;;;15.57;49.04;99192.25;5021665;28;20380;-82
2023/03/11 09:08:36;;;;;;;7.15;1.85;;;;;;;15.27;48.00;99188.00;5023258;28;20394;-78
2023/03/11 09:11:02;;;;;;;8.30;2.17;;;;;;;15.04;48.12;99207.56;5022482;28;20411;-81
2023/03/11 09:13:31;;;;;;;5.85;1.30;;;;;;;14.89;48.32;99200.06;5016394;28;20387;-83
2023/03/11 09:15:57;;;;;;;4.30;1.45;;;;;;;14.90;48.11;99199.00;5013439;28;20442;-80
2023/03/11 09:18:22;;;;;;;10.03;2.03;;;;;;;15.16;48.64;99194.19;5013038;28;20895;-79
2023/03/11 09:20:48;;;;;;;4.97;2.10;;;;;;;15.39;49.04;99198.59;5022521;28;20400;-82
2023/03/11 09:23:15;;;;;;;10.27;2.93;;;;;;;15.39;49.14;99209.28;5022327;28;20422;-78
2023/03/11 09:25:41;;;;;;;5.47;1.30;;;;;;;15.29;48.13;99190.44;5029989;28;20866;-79
2023/03/11 09:28:06;;;;;;;5.47;1.57;;;;;;;15.30;48.20;99197.38;5021498;28;20388;-79
2023/03/11 09:30:32;;;;;;;7.17;1.60;;;;;;;15.29;47.33;99195.78;5019190;28;20392;-80
2023/03/11 09:32:57;;;;;;;3.53;1.47;;;;;;;15.53;47.75;99199.13;5012278;28;20384;-81
2023/03/11 09:35:23;;;;;;;7.53;1.63;;;;;;;15.71;46.63;99195.44;5016013;28;20390;-79
2023/03/11 09:37:49;;;;;;;6.53;1.90;;;;;;;15.77;46.35;99204.38;5012222;28;20420;-80
2023/03/11 09:40:17;;;;;;;8.17;1.70;;;;;;;15.95;46.31;99212.16;5014765;28;20486;-79
2023/03/11 09:42:58;;;;;;;4.53;1.17;;;;;;;16.01;46.54;99203.19;5020332;28;20747;-79
2023/03/11 09:45:26;;;;;;;4.70;1.10;;;;;;;15.82;45.82;99209.81;5025277;28;20425;-78
2023/03/11 09:48:04;;;;;;;6.60;1.60;;;;;;;15.93;45.86;99216.16;5017589;28;20390;-80
2023/03/11 09:50:45;;;;;;;5.85;1.60;;;;;;;15.75;45.48;99225.19;5018054;28;20872;-80
2023/03/11 09:53:29;;;;;;;6.22;1.38;;;;;;;15.72;45.74;99215.78;5027425;28;20390;-81
2023/03/11 09:55:58;;;;;;;5.68;1.38;;;;;;;15.66;45.90;99222.91;5021670;28;20396;-80
2023/03/11 09:58:26;;;;;;;6.30;1.52;;;;;;;15.61;45.32;99212.13;5009470;28;20849;-79
2023/03/11 10:00:51;;;;;;;3.10;1.10;;;;;;;15.69;44.67;99216.25;5016996;28;20402;-84
2023/03/11 10:03:39;;;;;;;4.13;1.40;;;;;;;15.99;44.92;99212.50;5019634;28;20406;-80
2023/03/11 10:06:23;;;;;;;8.02;1.70;;;;;;;15.94;44.42;99207.91;5015404;28;20400;-81
2023/03/11 10:08:59;;;;;;;3.75;1.05;;;;;;;15.60;43.86;99196.31;5025272;28;20396;-80
2023/03/11 10:11:57;;;;;;;4.70;1.48;;;;;;;15.92;44.72;99206.50;5022994;28;20417;-81
2023/03/11 10:14:29;;;;;;;5.80;1.38;;;;;;;16.08;44.61;99175.47;5015903;28;20411;-82
2023/03/11 10:17:09;;;;;;;5.38;1.25;;;;;;;15.76;43.59;99184.09;5017151;28;20926;-81
2023/03/11 10:19:54;;;;;;;4.35;1.60;;;;;;;15.97;44.78;99191.38;5027060;28;20391;-81
2023/03/11 10:23:10;;;;;;;4.18;1.35;;;;;;;15.98;44.04;99209.03;5003599;28;20410;-80
2023/03/11 10:25:54;;;;;;;13.00;2.33;;;;;;;16.23;43.56;99181.88;5012890;28;20394;-79
2023/03/11 10:28:26;;;;;;;7.63;2.08;;;;;;;16.50;43.55;99196.44;5018352;28;20732;-80
2023/03/11 10:30:56;;;;;;;5.93;1.55;;;;;;;16.44;43.19;99190.22;5024645;28;20922;-82
2023/03/11 10:33:22;;;;;;;6.00;1.58;;;;;;;16.30;42.41;99197.75;5018050;28;20384;-82
2023/03/11 10:35:53;;;;;;;4.55;1.25;;;;;;;15.76;41.67;99200.91;5022461;28;20535;-80
2023/03/11 10:38:26;;;;;;;6.88;1.80;;;;;;;15.87;42.52;99191.22;5029333;28;20449;-81
2023/03/11 10:40:58;;;;;;;4.53;1.45;;;;;;;16.05;41.37;99190.16;5021686;28;20399;-80
2023/03/11 10:43:50;;;;;;;5.28;1.60;;;;;;;16.01;42.08;99175.66;5014328;28;20410;-81
2023/03/11 10:46:24;;;;;;;8.27;2.17;;;;;;;16.21;42.98;99181.31;5030447;28;20471;-80
2023/03/11 10:48:49;;;;;;;5.43;1.50;;;;;;;16.03;42.20;99195.75;5021653;28;20475;-81
2023/03/11 10:51:21;;;;;;;5.20;1.27;;;;;;;15.77;42.31;99191.03;5016883;28;20476;-82
2023/03/11 10:53:58;;;;;;;3.20;1.20;;;;;;;16.03;41.83;99195.75;5015308;28;20444;-81
2023/03/11 10:56:28;;;;;;;4.90;1.10;;;;;;;15.84;41.46;99186.34;5014899;28;20894;-80
2023/03/11 10:58:54;;;;;;;4.70;1.40;;;;;;;15.76;40.94;99194.75;5017760;28;20400;-80
2023/03/11 11:01:20;;;;;;;4.67;2.40;;;;;;;15.83;41.91;99192.75;5016467;28;20495;-82
2023/03/11 11:03:48;;;;;;;3.35;1.27;;;;;;;15.77;41.22;99185.69;5013240;28;20923;-80
2023/03/11 11:06:19;;;;;;;3.35;1.40;;;;;;;15.65;41.07;99188.41;5011637;28;20487;-81
2023/03/11 11:08:45;;;;;;;2.70;1.40;;;;;;;15.84;41.50;99172.97;5014322;28;20478;-82
2023/03/11 11:11:23;;;;;;;2.50;1.10;;;;;;;16.02;42.00;99171.94;5014874;28;20491;-81
2023/03/11 11:13:57;;;;;;;3.85;1.52;;;;;;;16.10;41.71;99182.22;5013651;28;20403;-81
2023/03/11 11:16:23;;;;;;;4.93;1.77;;;;;;;15.75;41.49;99177.09;4999743;28;20390;-82
2023/03/11 11:18:55;;;;;;;5.97;1.90;;;;;;;15.66;41.41;99177.50;5012680;28;20399;-81
2023/03/11 11:21:36;;;;;;;4.10;1.80;;;;;;;15.54;42.25;99174.06;5014036;28;20427;-81
2023/03/11 11:24:16;;;;;;;7.38;2.20;;;;;;;15.48;42.47;99169.66;5014547;28;20412;-81
2023/03/11 11:27:01;;;;;;;3.55;1.77;;;;;;;15.44;42.41;99177.34;5012823;28;20423;-81
2023/03/11 11:29:26;;;;;;;4.63;2.17;;;;;;;15.64;42.63;99165.41;5012514;28;20400;-81
2023/03/11 11:32:08;;;;;;;2.63;1.83;;;;;;;16.02;42.09;99170.06;5012062;28;20895;-81
2023/03/11 11:34:34;;;;;;;9.02;2.20;;;;;;;16.20;41.80;99157.50;5014323;28;20387;-81